Rochester Mills, Pennsylvania
Current Conditions -  °F | °C
As of 8:35 PM on Tuesday 27 Jan 2015 (Local Time) from KIDI Reporting Station
Overcast Overcast  
Wind Chill: -13°   Ceiling: 2000
Heat Index: -8°   Visibility: 10mi
Dew Point: -10°   Wind: 7mph
Humidity: 86%   Direction: NA
Pressure: 30.05"   Gusts: NA
Location:  40.82°N, 78.99°W
Report Text: KIDI 280135Z AUTO VRB06KT 10SM OVC020 M08/M10 A3005 RMK A01
Loading
Personal Weather Stations






























Interactive Weather Map New forecast layout! Learn more

10-Day Weather Forecast

Advertisements
Track Severe Weather on mobile